sensor_id;sensor_type;location;lat;lon;timestamp;P1;durP1;ratioP1;P2;durP2;ratioP2
72728;SDS011;60843;52.062;4.508;2022-09-09T00:00:17;7.28;;;3.92;;
72728;SDS011;60843;52.062;4.508;2022-09-09T00:02:53;7.85;;;3.65;;
72728;SDS011;60843;52.062;4.508;2022-09-09T00:05:24;9.13;;;3.97;;
72728;SDS011;60843;52.062;4.508;2022-09-09T00:07:58;8.55;;;3.63;;
72728;SDS011;60843;52.062;4.508;2022-09-09T00:10:34;10.45;;;4.35;;
72728;SDS011;60843;52.062;4.508;2022-09-09T00:13:22;8.48;;;4.30;;
72728;SDS011;60843;52.062;4.508;2022-09-09T00:18:51;10.05;;;4.00;;
72728;SDS011;60843;52.062;4.508;2022-09-09T00:21:37;9.98;;;4.00;;
72728;SDS011;60843;52.062;4.508;2022-09-09T00:24:11;8.68;;;3.92;;
72728;SDS011;60843;52.062;4.508;2022-09-09T00:26:51;8.27;;;4.05;;
72728;SDS011;60843;52.062;4.508;2022-09-09T00:29:28;9.43;;;4.28;;
72728;SDS011;60843;52.062;4.508;2022-09-09T00:32:13;8.57;;;4.45;;
72728;SDS011;60843;52.062;4.508;2022-09-09T00:34:49;9.65;;;4.03;;
72728;SDS011;60843;52.062;4.508;2022-09-09T00:37:16;11.75;;;4.47;;
72728;SDS011;60843;52.062;4.508;2022-09-09T00:39:47;7.40;;;3.97;;
72728;SDS011;60843;52.062;4.508;2022-09-09T00:45:01;12.18;;;4.22;;
72728;SDS011;60843;52.062;4.508;2022-09-09T00:47:51;8.13;;;4.65;;
72728;SDS011;60843;52.062;4.508;2022-09-09T00:55:45;10.30;;;4.60;;
72728;SDS011;60843;52.062;4.508;2022-09-09T00:58:13;11.70;;;5.28;;
72728;SDS011;60843;52.062;4.508;2022-09-09T01:00:41;9.40;;;4.63;;
72728;SDS011;60843;52.062;4.508;2022-09-09T01:03:12;10.05;;;5.10;;
72728;SDS011;60843;52.062;4.508;2022-09-09T01:11:22;10.27;;;5.47;;
72728;SDS011;60843;52.062;4.508;2022-09-09T01:16:46;11.40;;;5.18;;
72728;SDS011;60843;52.062;4.508;2022-09-09T01:19:15;11.75;;;5.43;;
72728;SDS011;60843;52.062;4.508;2022-09-09T01:21:55;12.05;;;6.03;;
72728;SDS011;60843;52.062;4.508;2022-09-09T01:27:27;11.50;;;5.80;;
72728;SDS011;60843;52.062;4.508;2022-09-09T01:29:53;13.95;;;6.20;;
72728;SDS011;60843;52.062;4.508;2022-09-09T01:32:39;15.07;;;6.20;;
72728;SDS011;60843;52.062;4.508;2022-09-09T01:35:08;12.48;;;6.53;;
72728;SDS011;60843;52.062;4.508;2022-09-09T01:37:40;13.73;;;6.55;;
72728;SDS011;60843;52.062;4.508;2022-09-09T01:40:07;14.10;;;6.45;;
72728;SDS011;60843;52.062;4.508;2022-09-09T01:42:33;12.05;;;6.47;;
72728;SDS011;60843;52.062;4.508;2022-09-09T01:44:58;14.60;;;6.80;;
72728;SDS011;60843;52.062;4.508;2022-09-09T01:47:24;11.43;;;6.60;;
72728;SDS011;60843;52.062;4.508;2022-09-09T01:49:50;11.20;;;6.30;;
72728;SDS011;60843;52.062;4.508;2022-09-09T01:52:15;14.90;;;7.10;;
72728;SDS011;60843;52.062;4.508;2022-09-09T01:54:41;13.85;;;6.75;;
72728;SDS011;60843;52.062;4.508;2022-09-09T01:57:12;14.68;;;6.68;;
72728;SDS011;60843;52.062;4.508;2022-09-09T02:02:39;12.32;;;6.65;;
72728;SDS011;60843;52.062;4.508;2022-09-09T02:05:11;13.73;;;6.30;;
72728;SDS011;60843;52.062;4.508;2022-09-09T02:07:44;13.02;;;6.53;;
72728;SDS011;60843;52.062;4.508;2022-09-09T02:10:24;10.38;;;5.55;;
72728;SDS011;60843;52.062;4.508;2022-09-09T02:12:55;11.32;;;5.55;;
72728;SDS011;60843;52.062;4.508;2022-09-09T02:15:37;12.07;;;6.10;;
72728;SDS011;60843;52.062;4.508;2022-09-09T02:18:12;9.98;;;5.13;;
72728;SDS011;60843;52.062;4.508;2022-09-09T02:23:05;12.75;;;5.72;;
72728;SDS011;60843;52.062;4.508;2022-09-09T02:27:59;9.88;;;3.90;;
72728;SDS011;60843;52.062;4.508;2022-09-09T02:30:25;10.35;;;4.20;;
72728;SDS011;60843;52.062;4.508;2022-09-09T02:32:53;9.20;;;3.70;;
72728;SDS011;60843;52.062;4.508;2022-09-09T02:35:22;7.45;;;3.33;;
72728;SDS011;60843;52.062;4.508;2022-09-09T02:37:49;11.18;;;3.42;;
72728;SDS011;60843;52.062;4.508;2022-09-09T02:40:16;6.90;;;3.17;;
72728;SDS011;60843;52.062;4.508;2022-09-09T02:42:42;6.80;;;3.30;;
72728;SDS011;60843;52.062;4.508;2022-09-09T02:45:10;6.43;;;2.78;;
72728;SDS011;60843;52.062;4.508;2022-09-09T02:48:11;10.85;;;4.47;;
72728;SDS011;60843;52.062;4.508;2022-09-09T02:54:04;5.60;;;3.42;;
72728;SDS011;60843;52.062;4.508;2022-09-09T02:56:52;11.02;;;2.83;;
72728;SDS011;60843;52.062;4.508;2022-09-09T02:59:21;5.80;;;2.67;;
72728;SDS011;60843;52.062;4.508;2022-09-09T03:01:47;8.35;;;2.50;;
72728;SDS011;60843;52.062;4.508;2022-09-09T03:04:13;12.73;;;3.40;;
72728;SDS011;60843;52.062;4.508;2022-09-09T03:06:39;7.35;;;3.00;;
72728;SDS011;60843;52.062;4.508;2022-09-09T03:09:04;7.30;;;2.75;;
72728;SDS011;60843;52.062;4.508;2022-09-09T03:11:30;9.13;;;2.65;;
72728;SDS011;60843;52.062;4.508;2022-09-09T03:13:56;9.27;;;2.80;;
72728;SDS011;60843;52.062;4.508;2022-09-09T03:16:22;6.50;;;2.45;;
72728;SDS011;60843;52.062;4.508;2022-09-09T03:18:48;6.90;;;2.03;;
72728;SDS011;60843;52.062;4.508;2022-09-09T03:21:14;7.10;;;2.13;;
72728;SDS011;60843;52.062;4.508;2022-09-09T03:23:39;7.25;;;1.77;;
72728;SDS011;60843;52.062;4.508;2022-09-09T03:26:05;4.55;;;2.00;;
72728;SDS011;60843;52.062;4.508;2022-09-09T03:28:30;6.40;;;2.30;;
72728;SDS011;60843;52.062;4.508;2022-09-09T03:31:02;6.60;;;1.88;;
72728;SDS011;60843;52.062;4.508;2022-09-09T03:33:29;6.65;;;2.10;;
72728;SDS011;60843;52.062;4.508;2022-09-09T03:35:55;4.18;;;1.92;;
72728;SDS011;60843;52.062;4.508;2022-09-09T03:38:22;5.72;;;1.70;;
72728;SDS011;60843;52.062;4.508;2022-09-09T03:40:51;6.10;;;2.05;;
72728;SDS011;60843;52.062;4.508;2022-09-09T03:43:21;3.60;;;1.80;;
72728;SDS011;60843;52.062;4.508;2022-09-09T03:45:47;8.18;;;1.77;;
72728;SDS011;60843;52.062;4.508;2022-09-09T03:48:13;5.72;;;1.40;;
72728;SDS011;60843;52.062;4.508;2022-09-09T03:50:51;8.75;;;2.00;;
72728;SDS011;60843;52.062;4.508;2022-09-09T03:53:18;7.60;;;1.83;;
72728;SDS011;60843;52.062;4.508;2022-09-09T03:55:46;4.38;;;1.77;;
72728;SDS011;60843;52.062;4.508;2022-09-09T03:58:15;4.82;;;1.98;;
72728;SDS011;60843;52.062;4.508;2022-09-09T04:00:41;5.70;;;1.80;;
72728;SDS011;60843;52.062;4.508;2022-09-09T04:03:10;6.63;;;2.08;;
72728;SDS011;60843;52.062;4.508;2022-09-09T04:05:36;5.63;;;1.83;;
72728;SDS011;60843;52.062;4.508;2022-09-09T04:08:08;9.82;;;2.10;;
72728;SDS011;60843;52.062;4.508;2022-09-09T04:10:34;8.07;;;1.95;;
72728;SDS011;60843;52.062;4.508;2022-09-09T04:13:02;5.80;;;2.03;;
72728;SDS011;60843;52.062;4.508;2022-09-09T04:15:29;9.00;;;1.73;;
72728;SDS011;60843;52.062;4.508;2022-09-09T04:17:55;6.45;;;1.80;;
72728;SDS011;60843;52.062;4.508;2022-09-09T04:20:21;7.43;;;2.00;;
72728;SDS011;60843;52.062;4.508;2022-09-09T04:22:47;4.72;;;1.85;;
72728;SDS011;60843;52.062;4.508;2022-09-09T04:25:17;4.80;;;1.88;;
72728;SDS011;60843;52.062;4.508;2022-09-09T04:27:42;7.00;;;2.13;;
72728;SDS011;60843;52.062;4.508;2022-09-09T04:30:07;9.27;;;2.40;;
72728;SDS011;60843;52.062;4.508;2022-09-09T04:32:34;7.18;;;2.05;;
72728;SDS011;60843;52.062;4.508;2022-09-09T04:35:00;7.53;;;2.35;;
72728;SDS011;60843;52.062;4.508;2022-09-09T04:37:26;12.25;;;2.33;;
72728;SDS011;60843;52.062;4.508;2022-09-09T04:39:51;10.32;;;2.80;;
72728;SDS011;60843;52.062;4.508;2022-09-09T04:42:17;7.07;;;1.77;;
72728;SDS011;60843;52.062;4.508;2022-09-09T04:44:44;5.72;;;1.77;;
72728;SDS011;60843;52.062;4.508;2022-09-09T04:47:10;6.45;;;2.03;;
72728;SDS011;60843;52.062;4.508;2022-09-09T04:49:35;4.55;;;2.00;;
72728;SDS011;60843;52.062;4.508;2022-09-09T04:52:02;8.32;;;2.10;;
72728;SDS011;60843;52.062;4.508;2022-09-09T04:54:28;5.47;;;1.65;;
72728;SDS011;60843;52.062;4.508;2022-09-09T04:56:54;4.88;;;1.83;;
72728;SDS011;60843;52.062;4.508;2022-09-09T04:59:20;4.45;;;1.65;;
72728;SDS011;60843;52.062;4.508;2022-09-09T05:01:46;8.40;;;2.00;;
72728;SDS011;60843;52.062;4.508;2022-09-09T05:04:12;8.07;;;1.90;;
72728;SDS011;60843;52.062;4.508;2022-09-09T05:06:37;7.60;;;1.80;;
72728;SDS011;60843;52.062;4.508;2022-09-09T05:09:03;11.40;;;1.92;;
72728;SDS011;60843;52.062;4.508;2022-09-09T05:11:29;6.90;;;2.15;;
72728;SDS011;60843;52.062;4.508;2022-09-09T05:13:57;8.68;;;2.00;;
72728;SDS011;60843;52.062;4.508;2022-09-09T05:16:23;6.72;;;2.80;;
72728;SDS011;60843;52.062;4.508;2022-09-09T05:18:48;9.00;;;2.33;;
72728;SDS011;60843;52.062;4.508;2022-09-09T05:21:16;6.15;;;2.10;;
72728;SDS011;60843;52.062;4.508;2022-09-09T05:23:42;6.35;;;1.95;;
72728;SDS011;60843;52.062;4.508;2022-09-09T05:26:09;6.07;;;2.05;;
72728;SDS011;60843;52.062;4.508;2022-09-09T05:28:38;9.10;;;2.05;;
72728;SDS011;60843;52.062;4.508;2022-09-09T05:31:04;8.13;;;1.90;;
72728;SDS011;60843;52.062;4.508;2022-09-09T05:33:33;6.97;;;2.28;;
72728;SDS011;60843;52.062;4.508;2022-09-09T05:36:00;8.98;;;2.00;;
72728;SDS011;60843;52.062;4.508;2022-09-09T05:38:27;11.35;;;2.60;;
72728;SDS011;60843;52.062;4.508;2022-09-09T05:40:53;11.55;;;2.28;;
72728;SDS011;60843;52.062;4.508;2022-09-09T05:43:20;13.23;;;2.72;;
72728;SDS011;60843;52.062;4.508;2022-09-09T05:45:46;10.25;;;2.42;;
72728;SDS011;60843;52.062;4.508;2022-09-09T05:48:12;4.43;;;1.70;;
72728;SDS011;60843;52.062;4.508;2022-09-09T05:50:42;10.38;;;2.00;;
72728;SDS011;60843;52.062;4.508;2022-09-09T05:53:08;11.40;;;2.35;;
72728;SDS011;60843;52.062;4.508;2022-09-09T05:55:35;7.72;;;1.90;;
72728;SDS011;60843;52.062;4.508;2022-09-09T05:58:00;8.13;;;1.70;;
72728;SDS011;60843;52.062;4.508;2022-09-09T06:00:26;8.00;;;1.85;;
72728;SDS011;60843;52.062;4.508;2022-09-09T06:02:52;10.45;;;1.67;;
72728;SDS011;60843;52.062;4.508;2022-09-09T06:05:18;9.90;;;1.70;;
72728;SDS011;60843;52.062;4.508;2022-09-09T06:07:44;7.50;;;2.17;;
72728;SDS011;60843;52.062;4.508;2022-09-09T06:10:10;7.85;;;2.20;;
72728;SDS011;60843;52.062;4.508;2022-09-09T06:12:38;7.72;;;2.05;;
72728;SDS011;60843;52.062;4.508;2022-09-09T06:15:06;12.43;;;1.85;;
72728;SDS011;60843;52.062;4.508;2022-09-09T06:17:33;5.43;;;1.65;;
72728;SDS011;60843;52.062;4.508;2022-09-09T06:19:59;11.27;;;1.67;;
72728;SDS011;60843;52.062;4.508;2022-09-09T06:22:24;5.85;;;1.30;;
72728;SDS011;60843;52.062;4.508;2022-09-09T06:24:50;9.83;;;2.13;;
72728;SDS011;60843;52.062;4.508;2022-09-09T06:27:16;7.40;;;2.08;;
72728;SDS011;60843;52.062;4.508;2022-09-09T06:29:41;8.13;;;1.77;;
72728;SDS011;60843;52.062;4.508;2022-09-09T06:32:06;6.00;;;1.55;;
72728;SDS011;60843;52.062;4.508;2022-09-09T06:34:33;6.15;;;1.52;;
72728;SDS011;60843;52.062;4.508;2022-09-09T06:36:59;7.50;;;2.17;;
72728;SDS011;60843;52.062;4.508;2022-09-09T06:39:25;12.13;;;2.25;;
72728;SDS011;60843;52.062;4.508;2022-09-09T06:41:50;12.20;;;1.90;;
72728;SDS011;60843;52.062;4.508;2022-09-09T06:44:18;7.88;;;2.25;;
72728;SDS011;60843;52.062;4.508;2022-09-09T06:46:44;6.43;;;2.00;;
72728;SDS011;60843;52.062;4.508;2022-09-09T06:51:37;5.03;;;1.73;;
72728;SDS011;60843;52.062;4.508;2022-09-09T06:54:08;11.20;;;2.40;;
72728;SDS011;60843;52.062;4.508;2022-09-09T06:59:05;8.35;;;2.60;;
72728;SDS011;60843;52.062;4.508;2022-09-09T07:06:29;6.45;;;2.13;;
72728;SDS011;60843;52.062;4.508;2022-09-09T07:09:09;8.55;;;2.60;;
72728;SDS011;60843;52.062;4.508;2022-09-09T07:11:38;7.40;;;2.33;;
72728;SDS011;60843;52.062;4.508;2022-09-09T07:14:08;14.82;;;2.58;;
72728;SDS011;60843;52.062;4.508;2022-09-09T07:16:33;11.40;;;2.50;;
72728;SDS011;60843;52.062;4.508;2022-09-09T07:19:02;8.02;;;2.70;;
72728;SDS011;60843;52.062;4.508;2022-09-09T07:21:28;12.52;;;2.72;;
72728;SDS011;60843;52.062;4.508;2022-09-09T07:23:54;9.43;;;2.47;;
72728;SDS011;60843;52.062;4.508;2022-09-09T07:26:21;11.07;;;2.70;;
72728;SDS011;60843;52.062;4.508;2022-09-09T07:28:48;10.07;;;2.35;;
72728;SDS011;60843;52.062;4.508;2022-09-09T07:31:23;7.50;;;2.78;;
72728;SDS011;60843;52.062;4.508;2022-09-09T07:33:51;12.68;;;2.75;;
72728;SDS011;60843;52.062;4.508;2022-09-09T07:36:21;10.43;;;2.60;;
72728;SDS011;60843;52.062;4.508;2022-09-09T07:38:47;8.65;;;2.53;;
72728;SDS011;60843;52.062;4.508;2022-09-09T07:41:17;14.18;;;2.90;;
72728;SDS011;60843;52.062;4.508;2022-09-09T07:43:45;8.90;;;2.80;;
72728;SDS011;60843;52.062;4.508;2022-09-09T07:46:11;7.95;;;2.55;;
72728;SDS011;60843;52.062;4.508;2022-09-09T07:48:38;7.18;;;2.90;;
72728;SDS011;60843;52.062;4.508;2022-09-09T07:51:10;7.35;;;2.80;;
72728;SDS011;60843;52.062;4.508;2022-09-09T07:53:41;13.95;;;3.42;;
72728;SDS011;60843;52.062;4.508;2022-09-09T07:56:11;6.68;;;3.00;;
72728;SDS011;60843;52.062;4.508;2022-09-09T07:58:39;6.80;;;3.42;;
72728;SDS011;60843;52.062;4.508;2022-09-09T08:01:06;9.98;;;3.17;;
72728;SDS011;60843;52.062;4.508;2022-09-09T08:06:55;8.07;;;2.50;;
72728;SDS011;60843;52.062;4.508;2022-09-09T08:09:22;10.90;;;2.67;;
72728;SDS011;60843;52.062;4.508;2022-09-09T08:11:50;7.13;;;2.58;;
72728;SDS011;60843;52.062;4.508;2022-09-09T08:14:15;10.90;;;2.35;;
72728;SDS011;60843;52.062;4.508;2022-09-09T08:16:45;5.70;;;2.45;;
72728;SDS011;60843;52.062;4.508;2022-09-09T08:19:12;6.60;;;2.30;;
72728;SDS011;60843;52.062;4.508;2022-09-09T08:21:39;10.45;;;2.50;;
72728;SDS011;60843;52.062;4.508;2022-09-09T08:24:05;8.77;;;2.70;;
72728;SDS011;60843;52.062;4.508;2022-09-09T08:26:33;9.13;;;2.45;;
72728;SDS011;60843;52.062;4.508;2022-09-09T08:29:00;7.00;;;2.78;;
72728;SDS011;60843;52.062;4.508;2022-09-09T08:31:27;11.63;;;2.80;;
72728;SDS011;60843;52.062;4.508;2022-09-09T08:33:54;6.15;;;2.35;;
72728;SDS011;60843;52.062;4.508;2022-09-09T08:36:21;9.98;;;2.30;;
72728;SDS011;60843;52.062;4.508;2022-09-09T08:38:52;9.80;;;2.33;;
72728;SDS011;60843;52.062;4.508;2022-09-09T08:43:47;8.25;;;2.80;;
72728;SDS011;60843;52.062;4.508;2022-09-09T08:46:20;7.38;;;2.63;;
72728;SDS011;60843;52.062;4.508;2022-09-09T08:48:55;7.25;;;2.28;;
72728;SDS011;60843;52.062;4.508;2022-09-09T08:51:25;8.52;;;2.55;;
72728;SDS011;60843;52.062;4.508;2022-09-09T08:53:51;7.40;;;2.47;;
72728;SDS011;60843;52.062;4.508;2022-09-09T08:56:21;7.63;;;2.80;;
72728;SDS011;60843;52.062;4.508;2022-09-09T08:58:49;6.30;;;2.63;;
72728;SDS011;60843;52.062;4.508;2022-09-09T09:07:15;6.13;;;2.15;;
72728;SDS011;60843;52.062;4.508;2022-09-09T09:15:55;9.18;;;2.90;;
72728;SDS011;60843;52.062;4.508;2022-09-09T09:18:29;8.75;;;2.70;;
72728;SDS011;60843;52.062;4.508;2022-09-09T09:21:12;9.35;;;2.60;;
72728;SDS011;60843;52.062;4.508;2022-09-09T09:23:58;7.07;;;2.92;;
72728;SDS011;60843;52.062;4.508;2022-09-09T09:26:26;9.27;;;3.05;;
72728;SDS011;60843;52.062;4.508;2022-09-09T09:29:16;10.50;;;3.03;;
72728;SDS011;60843;52.062;4.508;2022-09-09T09:31:45;10.73;;;3.30;;
72728;SDS011;60843;52.062;4.508;2022-09-09T09:34:15;5.75;;;2.92;;
72728;SDS011;60843;52.062;4.508;2022-09-09T09:36:43;8.30;;;2.55;;
72728;SDS011;60843;52.062;4.508;2022-09-09T09:39:34;10.25;;;3.13;;
72728;SDS011;60843;52.062;4.508;2022-09-09T09:42:34;11.60;;;2.95;;
72728;SDS011;60843;52.062;4.508;2022-09-09T09:44:53;7.75;;;2.83;;
72728;SDS011;60843;52.062;4.508;2022-09-09T09:47:19;11.87;;;2.83;;
72728;SDS011;60843;52.062;4.508;2022-09-09T09:49:56;7.38;;;2.95;;
72728;SDS011;60843;52.062;4.508;2022-09-09T09:52:25;8.55;;;2.42;;
72728;SDS011;60843;52.062;4.508;2022-09-09T09:55:12;9.85;;;3.33;;
72728;SDS011;60843;52.062;4.508;2022-09-09T09:57:38;8.60;;;2.92;;
72728;SDS011;60843;52.062;4.508;2022-09-09T10:00:25;4.80;;;2.83;;
72728;SDS011;60843;52.062;4.508;2022-09-09T10:02:50;13.68;;;3.95;;
72728;SDS011;60843;52.062;4.508;2022-09-09T10:05:19;6.38;;;2.88;;
72728;SDS011;60843;52.062;4.508;2022-09-09T10:07:46;8.75;;;2.95;;
72728;SDS011;60843;52.062;4.508;2022-09-09T10:10:21;7.05;;;3.70;;
72728;SDS011;60843;52.062;4.508;2022-09-09T10:13:04;8.77;;;2.60;;
72728;SDS011;60843;52.062;4.508;2022-09-09T10:21:30;12.43;;;2.78;;
72728;SDS011;60843;52.062;4.508;2022-09-09T10:27:15;12.60;;;3.03;;
72728;SDS011;60843;52.062;4.508;2022-09-09T10:29:58;10.43;;;3.40;;
72728;SDS011;60843;52.062;4.508;2022-09-09T10:35:33;8.13;;;3.05;;
72728;SDS011;60843;52.062;4.508;2022-09-09T10:38:10;10.68;;;3.28;;
72728;SDS011;60843;52.062;4.508;2022-09-09T10:51:26;7.50;;;3.03;;
72728;SDS011;60843;52.062;4.508;2022-09-09T10:54:06;4.55;;;2.50;;
72728;SDS011;60843;52.062;4.508;2022-09-09T10:56:57;10.02;;;3.15;;
72728;SDS011;60843;52.062;4.508;2022-09-09T10:59:26;7.85;;;2.88;;
72728;SDS011;60843;52.062;4.508;2022-09-09T11:02:05;12.43;;;5.50;;
72728;SDS011;60843;52.062;4.508;2022-09-09T11:04:58;9.93;;;2.70;;
72728;SDS011;60843;52.062;4.508;2022-09-09T11:07:54;3.33;;;2.03;;
72728;SDS011;60843;52.062;4.508;2022-09-09T11:10:37;5.53;;;1.83;;
72728;SDS011;60843;52.062;4.508;2022-09-09T11:19:50;5.35;;;2.20;;
72728;SDS011;60843;52.062;4.508;2022-09-09T11:22:06;6.05;;;2.15;;
72728;SDS011;60843;52.062;4.508;2022-09-09T11:27:24;7.82;;;2.25;;
72728;SDS011;60843;52.062;4.508;2022-09-09T11:38:16;6.25;;;2.40;;
72728;SDS011;60843;52.062;4.508;2022-09-09T11:40:45;5.85;;;2.13;;
72728;SDS011;60843;52.062;4.508;2022-09-09T11:43:19;4.72;;;2.40;;
72728;SDS011;60843;52.062;4.508;2022-09-09T11:45:54;8.63;;;2.40;;
72728;SDS011;60843;52.062;4.508;2022-09-09T11:53:51;6.50;;;2.90;;
72728;SDS011;60843;52.062;4.508;2022-09-09T11:56:25;6.57;;;2.45;;
72728;SDS011;60843;52.062;4.508;2022-09-09T12:01:28;6.47;;;3.42;;
72728;SDS011;60843;52.062;4.508;2022-09-09T12:06:46;6.38;;;3.00;;
72728;SDS011;60843;52.062;4.508;2022-09-09T12:19:41;6.75;;;2.63;;
72728;SDS011;60843;52.062;4.508;2022-09-09T12:27:18;10.30;;;3.38;;
72728;SDS011;60843;52.062;4.508;2022-09-09T12:29:55;6.70;;;2.95;;
72728;SDS011;60843;52.062;4.508;2022-09-09T12:32:27;8.18;;;3.00;;
72728;SDS011;60843;52.062;4.508;2022-09-09T12:34:55;4.65;;;2.45;;
72728;SDS011;60843;52.062;4.508;2022-09-09T12:37:30;7.88;;;2.42;;
72728;SDS011;60843;52.062;4.508;2022-09-09T12:40:01;4.47;;;1.95;;
72728;SDS011;60843;52.062;4.508;2022-09-09T12:42:29;5.95;;;2.10;;
72728;SDS011;60843;52.062;4.508;2022-09-09T12:45:02;8.43;;;4.57;;
72728;SDS011;60843;52.062;4.508;2022-09-09T12:47:30;4.68;;;2.38;;
72728;SDS011;60843;52.062;4.508;2022-09-09T12:49:59;7.22;;;2.45;;
72728;SDS011;60843;52.062;4.508;2022-09-09T12:52:32;4.28;;;2.10;;
72728;SDS011;60843;52.062;4.508;2022-09-09T12:55:02;4.40;;;2.15;;
72728;SDS011;60843;52.062;4.508;2022-09-09T12:57:31;6.05;;;2.42;;
72728;SDS011;60843;52.062;4.508;2022-09-09T13:00:14;5.28;;;2.42;;
72728;SDS011;60843;52.062;4.508;2022-09-09T13:02:48;5.85;;;1.88;;
72728;SDS011;60843;52.062;4.508;2022-09-09T13:05:19;4.15;;;1.98;;
72728;SDS011;60843;52.062;4.508;2022-09-09T13:07:46;4.05;;;2.28;;
72728;SDS011;60843;52.062;4.508;2022-09-09T13:10:13;9.88;;;2.50;;
72728;SDS011;60843;52.062;4.508;2022-09-09T13:12:40;5.47;;;2.55;;
72728;SDS011;60843;52.062;4.508;2022-09-09T13:15:10;7.47;;;2.60;;
72728;SDS011;60843;52.062;4.508;2022-09-09T13:17:41;5.40;;;2.10;;
72728;SDS011;60843;52.062;4.508;2022-09-09T13:20:14;6.50;;;1.63;;
72728;SDS011;60843;52.062;4.508;2022-09-09T13:22:41;3.15;;;1.58;;
72728;SDS011;60843;52.062;4.508;2022-09-09T13:27:37;7.10;;;1.42;;
72728;SDS011;60843;52.062;4.508;2022-09-09T13:35:28;2.80;;;1.42;;
72728;SDS011;60843;52.062;4.508;2022-09-09T13:37:54;5.72;;;1.98;;
72728;SDS011;60843;52.062;4.508;2022-09-09T13:40:21;3.65;;;1.52;;
72728;SDS011;60843;52.062;4.508;2022-09-09T13:42:50;3.92;;;1.58;;
72728;SDS011;60843;52.062;4.508;2022-09-09T13:45:21;5.55;;;1.60;;
72728;SDS011;60843;52.062;4.508;2022-09-09T13:47:48;4.28;;;1.30;;
72728;SDS011;60843;52.062;4.508;2022-09-09T13:50:27;5.05;;;1.42;;
72728;SDS011;60843;52.062;4.508;2022-09-09T13:52:54;2.63;;;0.60;;
72728;SDS011;60843;52.062;4.508;2022-09-09T13:55:23;1.33;;;0.63;;
72728;SDS011;60843;52.062;4.508;2022-09-09T13:57:54;2.65;;;0.70;;
72728;SDS011;60843;52.062;4.508;2022-09-09T14:00:21;1.35;;;0.60;;
72728;SDS011;60843;52.062;4.508;2022-09-09T14:02:48;2.03;;;0.52;;
72728;SDS011;60843;52.062;4.508;2022-09-09T14:05:13;3.00;;;1.02;;
72728;SDS011;60843;52.062;4.508;2022-09-09T14:07:40;3.78;;;0.80;;
72728;SDS011;60843;52.062;4.508;2022-09-09T14:10:07;3.00;;;1.10;;
72728;SDS011;60843;52.062;4.508;2022-09-09T14:12:32;4.70;;;1.77;;
72728;SDS011;60843;52.062;4.508;2022-09-09T14:14:58;10.23;;;1.60;;
72728;SDS011;60843;52.062;4.508;2022-09-09T14:17:25;5.25;;;1.80;;
72728;SDS011;60843;52.062;4.508;2022-09-09T14:19:54;4.47;;;1.50;;
72728;SDS011;60843;52.062;4.508;2022-09-09T14:22:21;5.28;;;1.45;;
72728;SDS011;60843;52.062;4.508;2022-09-09T14:24:47;4.72;;;1.52;;
72728;SDS011;60843;52.062;4.508;2022-09-09T14:27:12;10.65;;;1.63;;
72728;SDS011;60843;52.062;4.508;2022-09-09T14:29:38;5.47;;;1.73;;
72728;SDS011;60843;52.062;4.508;2022-09-09T14:32:03;6.70;;;1.42;;
72728;SDS011;60843;52.062;4.508;2022-09-09T14:34:29;4.47;;;1.30;;
72728;SDS011;60843;52.062;4.508;2022-09-09T14:36:56;6.05;;;1.17;;
72728;SDS011;60843;52.062;4.508;2022-09-09T14:39:22;6.32;;;1.52;;
72728;SDS011;60843;52.062;4.508;2022-09-09T14:41:47;3.97;;;1.30;;
72728;SDS011;60843;52.062;4.508;2022-09-09T14:44:13;6.07;;;1.50;;
72728;SDS011;60843;52.062;4.508;2022-09-09T14:46:38;3.80;;;1.20;;
72728;SDS011;60843;52.062;4.508;2022-09-09T14:49:03;4.10;;;1.20;;
72728;SDS011;60843;52.062;4.508;2022-09-09T14:51:29;8.25;;;1.35;;
72728;SDS011;60843;52.062;4.508;2022-09-09T14:53:56;7.07;;;1.30;;
72728;SDS011;60843;52.062;4.508;2022-09-09T14:56:24;7.50;;;1.30;;
72728;SDS011;60843;52.062;4.508;2022-09-09T14:58:55;4.80;;;1.02;;
72728;SDS011;60843;52.062;4.508;2022-09-09T15:01:21;6.47;;;1.40;;
72728;SDS011;60843;52.062;4.508;2022-09-09T15:04:00;5.53;;;1.35;;
72728;SDS011;60843;52.062;4.508;2022-09-09T15:06:28;10.07;;;1.55;;
72728;SDS011;60843;52.062;4.508;2022-09-09T15:08:56;7.43;;;1.38;;
72728;SDS011;60843;52.062;4.508;2022-09-09T15:11:29;5.15;;;1.13;;
72728;SDS011;60843;52.062;4.508;2022-09-09T15:13:55;4.20;;;0.80;;
72728;SDS011;60843;52.062;4.508;2022-09-09T15:16:23;6.00;;;1.50;;
72728;SDS011;60843;52.062;4.508;2022-09-09T15:18:51;4.60;;;1.23;;
72728;SDS011;60843;52.062;4.508;2022-09-09T15:23:44;3.90;;;1.40;;
72728;SDS011;60843;52.062;4.508;2022-09-09T15:26:09;4.63;;;1.52;;
72728;SDS011;60843;52.062;4.508;2022-09-09T15:28:35;7.70;;;1.48;;
72728;SDS011;60843;52.062;4.508;2022-09-09T15:31:07;6.00;;;1.30;;
72728;SDS011;60843;52.062;4.508;2022-09-09T15:33:35;6.68;;;1.20;;
72728;SDS011;60843;52.062;4.508;2022-09-09T15:36:13;4.85;;;0.95;;
72728;SDS011;60843;52.062;4.508;2022-09-09T15:38:40;10.90;;;1.30;;
72728;SDS011;60843;52.062;4.508;2022-09-09T15:41:06;7.13;;;1.35;;
72728;SDS011;60843;52.062;4.508;2022-09-09T15:43:31;7.70;;;1.40;;
72728;SDS011;60843;52.062;4.508;2022-09-09T15:45:58;6.00;;;1.27;;
72728;SDS011;60843;52.062;4.508;2022-09-09T15:48:30;6.75;;;1.50;;
72728;SDS011;60843;52.062;4.508;2022-09-09T15:51:02;8.20;;;1.75;;
72728;SDS011;60843;52.062;4.508;2022-09-09T15:53:28;11.77;;;1.88;;
72728;SDS011;60843;52.062;4.508;2022-09-09T15:55:55;4.57;;;1.20;;
72728;SDS011;60843;52.062;4.508;2022-09-09T15:58:20;3.38;;;1.17;;
72728;SDS011;60843;52.062;4.508;2022-09-09T16:00:46;2.63;;;1.13;;
72728;SDS011;60843;52.062;4.508;2022-09-09T16:03:11;5.22;;;1.38;;
72728;SDS011;60843;52.062;4.508;2022-09-09T16:05:37;6.80;;;1.70;;
72728;SDS011;60843;52.062;4.508;2022-09-09T16:08:03;3.45;;;1.70;;
72728;SDS011;60843;52.062;4.508;2022-09-09T16:10:29;8.40;;;1.92;;
72728;SDS011;60843;52.062;4.508;2022-09-09T16:12:55;7.82;;;1.88;;
72728;SDS011;60843;52.062;4.508;2022-09-09T16:15:21;9.15;;;2.50;;
72728;SDS011;60843;52.062;4.508;2022-09-09T16:17:48;9.32;;;3.10;;
72728;SDS011;60843;52.062;4.508;2022-09-09T16:20:14;9.00;;;2.78;;
72728;SDS011;60843;52.062;4.508;2022-09-09T16:22:39;7.88;;;3.30;;
72728;SDS011;60843;52.062;4.508;2022-09-09T16:25:05;10.30;;;3.67;;
72728;SDS011;60843;52.062;4.508;2022-09-09T16:27:30;12.75;;;3.40;;
72728;SDS011;60843;52.062;4.508;2022-09-09T16:29:57;10.35;;;3.60;;
72728;SDS011;60843;52.062;4.508;2022-09-09T16:32:22;7.72;;;4.13;;
72728;SDS011;60843;52.062;4.508;2022-09-09T16:34:48;10.68;;;5.13;;
72728;SDS011;60843;52.062;4.508;2022-09-09T16:37:13;20.13;;;6.43;;
72728;SDS011;60843;52.062;4.508;2022-09-09T16:39:38;15.30;;;7.45;;
72728;SDS011;60843;52.062;4.508;2022-09-09T16:42:04;15.93;;;6.78;;
72728;SDS011;60843;52.062;4.508;2022-09-09T16:44:29;15.57;;;7.30;;
72728;SDS011;60843;52.062;4.508;2022-09-09T16:46:55;12.48;;;7.10;;
72728;SDS011;60843;52.062;4.508;2022-09-09T16:49:21;13.15;;;6.15;;
72728;SDS011;60843;52.062;4.508;2022-09-09T16:51:47;18.52;;;7.28;;
72728;SDS011;60843;52.062;4.508;2022-09-09T16:54:14;13.30;;;6.28;;
72728;SDS011;60843;52.062;4.508;2022-09-09T16:59:15;11.70;;;5.75;;
72728;SDS011;60843;52.062;4.508;2022-09-09T17:01:43;11.20;;;5.65;;
72728;SDS011;60843;52.062;4.508;2022-09-09T17:04:10;12.93;;;5.72;;
72728;SDS011;60843;52.062;4.508;2022-09-09T17:06:52;13.23;;;5.60;;
72728;SDS011;60843;52.062;4.508;2022-09-09T17:09:18;12.48;;;5.30;;
72728;SDS011;60843;52.062;4.508;2022-09-09T17:11:44;9.82;;;4.65;;
72728;SDS011;60843;52.062;4.508;2022-09-09T17:14:11;9.60;;;4.20;;
72728;SDS011;60843;52.062;4.508;2022-09-09T17:16:40;9.85;;;3.83;;